createdAt,value
2018-06-03T00:01:41.324Z,44.97
2018-06-03T00:04:09.992Z,44.30
2018-06-03T00:06:38.651Z,45.30
2018-06-03T00:09:07.316Z,42.93
2018-06-03T00:11:35.958Z,42.03
2018-06-03T00:14:04.635Z,40.57
2018-06-03T00:16:33.287Z,39.27
2018-06-03T00:19:01.959Z,39.43
2018-06-03T00:21:42.072Z,40.17
2018-06-03T00:24:10.775Z,39.00
2018-06-03T00:26:39.655Z,38.00
2018-06-03T00:29:08.563Z,40.43
2018-06-03T00:31:37.447Z,40.43
2018-06-03T00:34:06.354Z,37.37
2018-06-03T00:36:44.459Z,40.77
2018-06-03T00:39:13.381Z,40.43
2018-06-03T00:41:42.287Z,40.07
2018-06-03T00:44:11.206Z,42.13
2018-06-03T00:46:40.100Z,39.17
2018-06-03T00:49:09.007Z,38.43
2018-06-03T00:51:37.890Z,40.37
2018-06-03T00:54:06.795Z,38.73
2018-06-03T00:56:47.123Z,40.27
2018-06-03T00:59:16.025Z,40.37
2018-06-03T01:01:44.981Z,40.30
2018-06-03T01:04:13.940Z,40.07
2018-06-03T01:06:42.859Z,39.90
2018-06-03T01:09:11.803Z,40.37
2018-06-03T01:11:40.715Z,39.87
2018-06-03T01:14:10.622Z,40.93
2018-06-03T01:16:39.535Z,39.03
2018-06-03T01:19:08.439Z,38.93
2018-06-03T01:21:37.355Z,37.23
2018-06-03T01:24:06.259Z,38.37
2018-06-03T01:26:35.167Z,37.97
2018-06-03T01:29:04.075Z,38.93
2018-06-03T01:31:32.972Z,39.87
2018-06-03T01:34:01.888Z,36.10
2018-06-03T01:36:30.779Z,35.73
2018-06-03T01:38:59.686Z,36.57
2018-06-03T01:41:28.594Z,37.97
2018-06-03T01:43:57.489Z,36.10
2018-06-03T01:46:26.405Z,41.83
2018-06-03T01:48:55.323Z,44.27
2018-06-03T01:51:24.227Z,41.90
2018-06-03T01:53:53.130Z,42.07
2018-06-03T01:56:22.048Z,41.23
2018-06-03T01:58:50.947Z,43.30
2018-06-03T02:01:19.629Z,41.77
2018-06-03T02:03:48.403Z,40.60
2018-06-03T02:06:17.335Z,40.73
2018-06-03T02:08:46.250Z,41.07
2018-06-03T02:11:15.179Z,43.33
2018-06-03T02:13:44.091Z,41.03
2018-06-03T02:16:12.987Z,40.93
2018-06-03T02:18:41.891Z,41.87
2018-06-03T02:21:10.794Z,40.47
2018-06-03T02:23:40.347Z,37.70
2018-06-03T02:26:09.268Z,36.37
2018-06-03T02:28:38.159Z,35.87
2018-06-03T02:31:07.083Z,34.33
2018-06-03T02:33:35.975Z,34.77
2018-06-03T02:36:04.902Z,33.73
2018-06-03T02:38:33.860Z,33.80
2018-06-03T02:41:02.811Z,34.83
2018-06-03T02:43:31.847Z,35.63
2018-06-03T02:46:00.811Z,36.33
2018-06-03T02:48:29.711Z,37.43
2018-06-03T02:50:58.620Z,39.47
2018-06-03T02:53:27.518Z,37.60
2018-06-03T02:55:56.419Z,36.43
2018-06-03T02:58:25.325Z,35.57
2018-06-03T03:00:54.512Z,34.97
2018-06-03T03:03:23.406Z,34.73
2018-06-03T03:05:52.326Z,36.23
2018-06-03T03:08:21.231Z,32.97
2018-06-03T03:10:50.149Z,28.17
2018-06-03T03:13:19.042Z,29.53
2018-06-03T03:15:47.948Z,35.73
2018-06-03T03:18:16.849Z,36.17
2018-06-03T03:20:45.778Z,35.17
2018-06-03T03:23:15.123Z,34.90
2018-06-03T03:25:44.018Z,35.60
2018-06-03T03:28:12.915Z,36.13
2018-06-03T03:30:41.822Z,35.20
2018-06-03T03:33:10.718Z,35.03
2018-06-03T03:35:39.643Z,36.40
2018-06-03T03:38:08.858Z,35.43
2018-06-03T03:40:37.767Z,34.60
2018-06-03T03:43:07.041Z,33.47
2018-06-03T03:45:36.163Z,36.63
2018-06-03T03:48:05.058Z,34.77
2018-06-03T03:50:33.952Z,34.90
2018-06-03T03:53:02.867Z,35.60
2018-06-03T03:55:31.754Z,37.93
2018-06-03T03:58:00.653Z,36.73
2018-06-03T04:00:29.552Z,37.87
2018-06-03T04:02:58.465Z,37.63
2018-06-03T04:05:27.378Z,37.50
2018-06-03T04:07:56.557Z,37.93
2018-06-03T04:10:25.478Z,38.60
2018-06-03T04:12:54.433Z,41.10
2018-06-03T04:15:23.326Z,39.63
2018-06-03T04:17:52.234Z,41.73
2018-06-03T04:20:21.159Z,40.73
2018-06-03T04:22:50.070Z,41.80
2018-06-03T04:25:18.967Z,42.90
2018-06-03T04:27:48.194Z,42.53
2018-06-03T04:30:17.083Z,43.13
2018-06-03T04:32:46.107Z,42.07
2018-06-03T04:35:14.990Z,41.50
2018-06-03T04:37:43.882Z,43.47
2018-06-03T04:40:13.031Z,42.00
2018-06-03T04:42:41.943Z,43.17
2018-06-03T04:45:10.831Z,43.20
2018-06-03T04:47:39.740Z,40.97
2018-06-03T04:50:08.618Z,42.00
2018-06-03T04:52:37.519Z,39.80
2018-06-03T04:55:06.432Z,41.07
2018-06-03T04:57:35.319Z,41.30
2018-06-03T05:00:04.211Z,37.77
2018-06-03T05:02:33.132Z,41.20
2018-06-03T05:05:02.026Z,42.20
2018-06-03T05:07:31.058Z,42.33
2018-06-03T05:09:59.951Z,42.47
2018-06-03T05:12:29.363Z,42.57
2018-06-03T05:14:58.257Z,42.23
2018-06-03T05:17:27.159Z,44.90
2018-06-03T05:19:56.078Z,43.87
2018-06-03T05:22:25.000Z,43.60
2018-06-03T05:24:53.952Z,43.47
2018-06-03T05:27:22.848Z,45.30
2018-06-03T05:29:51.755Z,44.77
2018-06-03T05:32:20.682Z,43.57
2018-06-03T05:34:49.582Z,43.93
2018-06-03T05:37:18.492Z,43.97
2018-06-03T05:39:47.388Z,44.17
2018-06-03T05:42:16.351Z,45.07
2018-06-03T05:44:45.329Z,43.60
2018-06-03T05:47:20.667Z,42.40
2018-06-03T05:49:49.601Z,43.53
2018-06-03T05:52:18.518Z,41.30
2018-06-03T05:54:47.539Z,44.77
2018-06-03T05:57:16.455Z,42.53
2018-06-03T05:59:45.366Z,45.20
2018-06-03T06:02:14.388Z,45.17
2018-06-03T06:04:43.306Z,44.40
2018-06-03T06:07:12.207Z,43.07
2018-06-03T06:09:41.116Z,44.47
2018-06-03T06:12:10.057Z,43.97
2018-06-03T06:14:38.935Z,45.47
2018-06-03T06:17:07.848Z,44.60
2018-06-03T06:19:36.854Z,44.83
2018-06-03T06:22:05.774Z,43.63
2018-06-03T06:24:34.691Z,44.50
2018-06-03T06:27:03.651Z,44.50
2018-06-03T06:29:32.551Z,45.73
2018-06-03T06:32:01.451Z,44.87
2018-06-03T06:34:30.381Z,44.03
2018-06-03T06:36:59.270Z,44.30
2018-06-03T06:39:28.198Z,44.80
2018-06-03T06:41:57.103Z,45.03
2018-06-03T06:44:26.023Z,44.60
2018-06-03T06:46:54.923Z,42.97
2018-06-03T06:49:23.830Z,43.13
2018-06-03T06:51:52.743Z,42.67
2018-06-03T06:54:21.830Z,43.20
2018-06-03T06:56:50.751Z,41.17
2018-06-03T06:59:19.670Z,40.23
2018-06-03T07:01:48.561Z,39.77
2018-06-03T07:04:17.555Z,41.83
2018-06-03T07:06:46.475Z,40.23
2018-06-03T07:09:15.343Z,38.47
2018-06-03T07:11:44.224Z,38.03
2018-06-03T07:14:13.119Z,38.67
2018-06-03T07:16:42.006Z,40.00
2018-06-03T07:19:10.903Z,35.97
2018-06-03T07:21:39.787Z,36.27
2018-06-03T07:24:08.685Z,36.40
2018-06-03T07:26:37.583Z,33.30
2018-06-03T07:29:06.476Z,33.20
2018-06-03T07:31:35.353Z,33.97
2018-06-03T07:34:04.254Z,35.73
2018-06-03T07:36:33.164Z,32.97
2018-06-03T07:39:02.063Z,33.67
2018-06-03T07:41:30.994Z,33.73
2018-06-03T07:43:59.895Z,30.40
2018-06-03T07:46:28.786Z,30.60
2018-06-03T07:48:58.593Z,29.70
2018-06-03T07:51:28.908Z,29.47
2018-06-03T07:53:59.618Z,28.93
2018-06-03T07:56:30.223Z,29.97
2018-06-03T07:59:00.881Z,32.37
2018-06-03T08:01:30.817Z,30.67
2018-06-03T08:04:00.455Z,30.33
2018-06-03T08:06:30.981Z,30.40
2018-06-03T08:09:00.679Z,31.03
2018-06-03T08:11:30.523Z,26.63
2018-06-03T08:13:59.531Z,28.80
2018-06-03T08:16:28.459Z,26.60
2018-06-03T08:18:57.511Z,26.90
2018-06-03T08:21:26.435Z,26.63
2018-06-03T08:23:55.319Z,26.30
2018-06-03T08:26:24.226Z,26.17
2018-06-03T08:28:53.120Z,26.50
2018-06-03T08:31:22.039Z,24.23
2018-06-03T08:33:50.970Z,22.40
2018-06-03T08:36:19.905Z,24.07
2018-06-03T08:38:48.893Z,24.43
2018-06-03T08:41:17.843Z,25.87
2018-06-03T08:43:46.742Z,24.47
2018-06-03T08:46:15.622Z,24.50
2018-06-03T08:48:44.502Z,24.70
2018-06-03T08:51:13.498Z,23.70
2018-06-03T08:53:42.395Z,22.60
2018-06-03T08:56:11.309Z,23.43
2018-06-03T08:58:40.223Z,23.80
2018-06-03T09:01:09.135Z,22.53
2018-06-03T09:03:38.043Z,22.80
2018-06-03T09:06:06.976Z,20.05
2018-06-03T09:08:35.878Z,17.12
2018-06-03T09:11:04.803Z,18.00
2018-06-03T09:13:33.691Z,19.62
2018-06-03T09:16:02.619Z,19.75
2018-06-03T09:18:31.510Z,18.27
2018-06-03T09:21:00.423Z,19.82
2018-06-03T09:23:29.330Z,20.32
2018-06-03T09:25:58.286Z,20.12
2018-06-03T09:28:27.176Z,19.37
2018-06-03T09:31:01.625Z,20.32
2018-06-03T09:33:30.907Z,19.07
2018-06-03T09:35:59.831Z,20.02
2018-06-03T09:38:28.723Z,14.60
2018-06-03T09:40:57.641Z,15.05
2018-06-03T09:43:26.519Z,15.95
2018-06-03T09:45:55.429Z,18.80
2018-06-03T09:48:24.318Z,19.27
2018-06-03T09:50:53.239Z,19.48
2018-06-03T09:53:22.227Z,19.15
2018-06-03T09:55:51.051Z,18.48
2018-06-03T09:58:19.955Z,17.00
2018-06-03T10:00:49.125Z,15.93
2018-06-03T10:03:18.078Z,17.70
2018-06-03T10:05:46.991Z,18.42
2018-06-03T10:08:15.889Z,18.67
2018-06-03T10:10:44.779Z,19.60
2018-06-03T10:13:13.958Z,17.90
2018-06-03T10:15:42.951Z,18.33
2018-06-03T10:18:11.640Z,18.27
2018-06-03T10:20:40.408Z,18.30
2018-06-03T10:23:09.308Z,19.97
2018-06-03T10:25:38.232Z,20.17
2018-06-03T10:28:07.190Z,19.90
2018-06-03T10:30:36.476Z,19.10
2018-06-03T10:33:05.472Z,19.20
2018-06-03T10:35:34.491Z,21.27
2018-06-03T10:38:03.433Z,19.60
2018-06-03T10:40:32.322Z,19.73
2018-06-03T10:43:01.228Z,19.70
2018-06-03T10:45:30.128Z,18.97
2018-06-03T10:47:59.029Z,20.93
2018-06-03T10:50:27.926Z,18.83
2018-06-03T10:52:56.820Z,16.53
2018-06-03T10:55:25.714Z,15.67
2018-06-03T10:57:54.623Z,17.87
2018-06-03T11:00:23.535Z,17.23
2018-06-03T11:02:52.510Z,17.20
2018-06-03T11:05:21.417Z,15.50
2018-06-03T11:07:50.482Z,17.95
2018-06-03T11:10:19.466Z,18.00
2018-06-03T11:12:48.596Z,18.05
2018-06-03T11:15:18.476Z,16.95
2018-06-03T11:17:47.590Z,15.32
2018-06-03T11:20:16.522Z,11.60
2018-06-03T11:22:45.440Z,11.15
2018-06-03T11:25:14.347Z,12.47
2018-06-03T11:27:43.361Z,12.65
2018-06-03T11:30:12.249Z,13.48
2018-06-03T11:32:41.157Z,13.25
2018-06-03T11:35:10.068Z,11.80
2018-06-03T11:37:39.924Z,11.43
2018-06-03T11:40:08.812Z,12.10
2018-06-03T11:42:37.723Z,11.57
2018-06-03T11:45:08.031Z,12.40
2018-06-03T11:47:36.940Z,11.95
2018-06-03T11:50:05.857Z,11.22
2018-06-03T11:52:40.793Z,10.00
2018-06-03T11:55:10.284Z,10.10
2018-06-03T11:57:50.439Z,11.12
2018-06-03T12:00:19.348Z,11.55
2018-06-03T12:02:48.246Z,9.85
2018-06-03T12:05:17.206Z,9.93
2018-06-03T12:07:46.185Z,8.75
2018-06-03T12:10:15.091Z,8.88
2018-06-03T12:12:43.993Z,8.15
2018-06-03T12:15:12.900Z,8.20
2018-06-03T12:17:41.786Z,9.18
2018-06-03T12:20:10.683Z,7.85
2018-06-03T12:22:39.574Z,9.65
2018-06-03T12:25:08.483Z,9.00
2018-06-03T12:27:37.373Z,8.68
2018-06-03T12:30:06.270Z,8.13
2018-06-03T12:32:35.163Z,8.73
2018-06-03T12:35:04.076Z,8.80
2018-06-03T12:37:32.966Z,8.55
2018-06-03T12:40:01.870Z,7.95
2018-06-03T12:42:30.755Z,9.00
2018-06-03T12:44:59.658Z,10.05
2018-06-03T12:47:28.569Z,8.83
2018-06-03T12:49:57.471Z,9.48
2018-06-03T12:52:26.539Z,7.97
2018-06-03T12:54:55.451Z,8.45
2018-06-03T12:57:24.338Z,8.63
2018-06-03T12:59:53.260Z,8.18
2018-06-03T13:02:22.218Z,7.83
2018-06-03T13:04:51.117Z,8.05
2018-06-03T13:07:20.000Z,9.50
2018-06-03T13:09:48.907Z,8.83
2018-06-03T13:12:17.805Z,10.65
2018-06-03T13:14:46.708Z,12.82
2018-06-03T13:17:15.740Z,11.60
2018-06-03T13:19:44.616Z,11.68
2018-06-03T13:22:13.542Z,11.55
2018-06-03T13:24:42.447Z,11.15
2018-06-03T13:27:11.351Z,10.78
2018-06-03T13:29:40.247Z,10.08
2018-06-03T13:32:09.347Z,10.13
2018-06-03T13:34:38.236Z,10.00
2018-06-03T13:37:07.215Z,9.73
2018-06-03T13:39:36.106Z,9.50
2018-06-03T13:42:05.223Z,8.75
2018-06-03T13:44:34.121Z,8.68
2018-06-03T13:47:03.019Z,8.75
2018-06-03T13:49:31.915Z,8.48
2018-06-03T13:52:00.816Z,8.65
2018-06-03T13:54:29.707Z,8.08
2018-06-03T13:56:58.611Z,7.75
2018-06-03T13:59:27.856Z,8.13
2018-06-03T14:01:56.776Z,8.28
2018-06-03T14:04:25.650Z,9.80
2018-06-03T14:06:54.563Z,9.95
2018-06-03T14:09:23.452Z,8.83
2018-06-03T14:11:52.360Z,12.35
2018-06-03T14:14:21.275Z,14.07
2018-06-03T14:16:50.176Z,12.53
2018-06-03T14:19:19.070Z,12.03
2018-06-03T14:21:47.983Z,12.03
2018-06-03T14:24:16.866Z,12.53
2018-06-03T14:26:45.762Z,12.93
2018-06-03T14:29:14.681Z,12.15
2018-06-03T14:31:43.589Z,11.90
2018-06-03T14:34:12.855Z,12.58
2018-06-03T14:36:41.787Z,13.48
2018-06-03T14:39:11.214Z,13.10
2018-06-03T14:41:40.114Z,13.35
2018-06-03T14:44:09.022Z,12.95
2018-06-03T14:46:37.902Z,12.70
2018-06-03T14:49:07.211Z,12.82
2018-06-03T14:51:36.675Z,12.55
2018-06-03T14:54:06.605Z,14.58
2018-06-03T14:56:35.491Z,13.93
2018-06-03T14:59:04.351Z,16.37
2018-06-03T15:01:33.526Z,15.83
2018-06-03T15:04:02.442Z,16.37
2018-06-03T15:06:31.396Z,15.23
2018-06-03T15:09:00.315Z,16.95
2018-06-03T15:11:29.210Z,15.85
2018-06-03T15:13:58.122Z,14.95
2018-06-03T15:16:27.043Z,15.80
2018-06-03T15:18:55.737Z,14.53
2018-06-03T15:21:24.543Z,17.60
2018-06-03T15:23:53.719Z,16.17
2018-06-03T15:26:22.603Z,17.73
2018-06-03T15:28:51.539Z,16.40
2018-06-03T15:31:20.459Z,16.35
2018-06-03T15:33:49.400Z,15.60
2018-06-03T15:36:18.266Z,17.25
2018-06-03T15:38:47.188Z,17.25
2018-06-03T15:41:16.080Z,16.73
2018-06-03T15:43:44.785Z,18.50
2018-06-03T15:46:13.547Z,17.90
2018-06-03T15:48:42.467Z,16.90
2018-06-03T15:51:11.367Z,18.25
2018-06-03T15:53:40.375Z,17.95
2018-06-03T15:56:09.271Z,17.67
2018-06-03T15:58:38.185Z,17.32
2018-06-03T16:01:07.079Z,16.87
2018-06-03T16:03:36.039Z,16.02
2018-06-03T16:06:04.918Z,15.05
2018-06-03T16:08:33.827Z,15.10
2018-06-03T16:11:02.727Z,13.58
2018-06-03T16:13:31.632Z,14.95
2018-06-03T16:16:00.519Z,14.95
2018-06-03T16:18:29.424Z,13.40
2018-06-03T16:20:58.351Z,16.87
2018-06-03T16:23:27.237Z,15.65
2018-06-03T16:25:55.914Z,15.20
2018-06-03T16:28:24.670Z,15.70
2018-06-03T16:30:53.632Z,15.50
2018-06-03T16:33:22.534Z,14.35
2018-06-03T16:35:51.468Z,14.87
2018-06-03T16:38:20.468Z,14.78
2018-06-03T16:40:49.363Z,15.60
2018-06-03T16:43:18.302Z,14.65
2018-06-03T16:45:47.203Z,14.63
2018-06-03T16:48:15.928Z,15.38
2018-06-03T16:50:44.942Z,14.80
2018-06-03T16:53:14.666Z,13.58
2018-06-03T16:55:43.715Z,14.55
2018-06-03T16:58:13.285Z,13.25
2018-06-03T17:00:42.208Z,13.25
2018-06-03T17:03:11.487Z,13.58
2018-06-03T17:05:40.566Z,13.50
2018-06-03T17:08:10.178Z,13.85
2018-06-03T17:10:39.079Z,13.30
2018-06-03T17:13:07.967Z,13.60
2018-06-03T17:15:36.863Z,14.28
2018-06-03T17:18:05.947Z,12.80
2018-06-03T17:20:35.042Z,12.10
2018-06-03T17:23:03.875Z,11.25
2018-06-03T17:25:32.767Z,11.33
2018-06-03T17:28:01.802Z,11.40
2018-06-03T17:30:30.730Z,12.78
2018-06-03T17:33:00.088Z,14.40
2018-06-03T17:35:29.133Z,14.73
2018-06-03T17:37:58.007Z,14.58
2018-06-03T17:40:27.153Z,15.23
2018-06-03T17:42:56.092Z,15.53
2018-06-03T17:45:25.202Z,14.93
2018-06-03T17:47:54.130Z,15.63
2018-06-03T17:50:23.346Z,13.53
2018-06-03T17:52:52.372Z,14.98
2018-06-03T17:55:21.259Z,12.75
2018-06-03T17:57:50.373Z,11.87
2018-06-03T18:00:19.273Z,12.10
2018-06-03T18:02:48.503Z,11.83
2018-06-03T18:05:17.411Z,13.30
2018-06-03T18:07:46.334Z,12.33
2018-06-03T18:10:15.225Z,12.13
2018-06-03T18:12:44.190Z,11.20
2018-06-03T18:15:13.092Z,12.23
2018-06-03T18:17:42.019Z,11.33
2018-06-03T18:20:10.906Z,12.00
2018-06-03T18:22:39.817Z,11.20
2018-06-03T18:25:08.723Z,11.45
2018-06-03T18:27:37.655Z,12.07
2018-06-03T18:30:06.650Z,11.97
2018-06-03T18:32:35.582Z,11.97
2018-06-03T18:35:04.487Z,12.57
2018-06-03T18:37:33.391Z,12.80
2018-06-03T18:40:02.296Z,13.10
2018-06-03T18:42:31.193Z,12.10
2018-06-03T18:45:00.319Z,11.53
2018-06-03T18:47:29.211Z,11.93
2018-06-03T18:49:58.091Z,11.63
2018-06-03T18:52:26.991Z,12.23
2018-06-03T18:54:55.883Z,13.07
2018-06-03T18:57:24.787Z,13.90
2018-06-03T18:59:53.680Z,12.17
2018-06-03T19:02:22.579Z,13.17
2018-06-03T19:04:51.471Z,12.87
2018-06-03T19:07:20.826Z,12.60
2018-06-03T19:09:49.771Z,12.23
2018-06-03T19:12:18.679Z,12.20
2018-06-03T19:14:47.559Z,12.10
2018-06-03T19:17:16.478Z,12.23
2018-06-03T19:19:45.718Z,12.13
2018-06-03T19:22:14.609Z,12.83
2018-06-03T19:24:43.509Z,12.17
2018-06-03T19:27:12.392Z,11.50
2018-06-03T19:29:41.383Z,11.80
2018-06-03T19:32:10.271Z,12.90
2018-06-03T19:34:39.258Z,11.67
2018-06-03T19:37:08.135Z,14.37
2018-06-03T19:39:38.047Z,13.47
2018-06-03T19:42:06.937Z,13.67
2018-06-03T19:44:35.848Z,12.60
2018-06-03T19:47:04.975Z,14.90
2018-06-03T19:49:33.873Z,14.57
2018-06-03T19:52:02.757Z,14.00
2018-06-03T19:54:31.654Z,13.53
2018-06-03T19:57:00.607Z,12.73
2018-06-03T19:59:30.726Z,13.23
2018-06-03T20:02:01.065Z,14.67
2018-06-03T20:04:30.073Z,14.00
2018-06-03T20:06:58.942Z,15.13
2018-06-03T20:09:27.840Z,14.17
2018-06-03T20:11:56.730Z,14.27
2018-06-03T20:14:25.660Z,13.50
2018-06-03T20:16:54.620Z,13.90
2018-06-03T20:19:23.630Z,14.17
2018-06-03T20:21:52.523Z,14.93
2018-06-03T20:24:21.237Z,14.13
2018-06-03T20:26:49.960Z,14.57
2018-06-03T20:29:18.870Z,15.57
2018-06-03T20:31:47.752Z,16.17
2018-06-03T20:34:16.650Z,16.90
2018-06-03T20:36:45.546Z,16.27
2018-06-03T20:39:14.449Z,15.67
2018-06-03T20:41:43.326Z,16.70
2018-06-03T20:44:12.218Z,17.03
2018-06-03T20:46:41.119Z,16.60
2018-06-03T20:49:10.010Z,17.17
2018-06-03T20:51:38.910Z,16.53
2018-06-03T20:54:07.809Z,16.70
2018-06-03T20:56:36.694Z,16.87
2018-06-03T20:59:05.579Z,16.17
2018-06-03T21:01:34.467Z,16.90
2018-06-03T21:04:03.351Z,16.50
2018-06-03T21:06:32.275Z,17.63
2018-06-03T21:09:01.159Z,16.60
2018-06-03T21:11:30.064Z,16.70
2018-06-03T21:13:58.963Z,17.07
2018-06-03T21:16:28.279Z,16.27
2018-06-03T21:18:56.949Z,16.90
2018-06-03T21:21:25.735Z,15.90
2018-06-03T21:23:54.635Z,15.40
2018-06-03T21:26:23.539Z,15.20
2018-06-03T21:28:52.453Z,15.27
2018-06-03T21:31:21.351Z,16.57
2018-06-03T21:33:50.257Z,17.23
2018-06-03T21:36:19.142Z,17.37
2018-06-03T21:38:48.050Z,16.77
2018-06-03T21:41:16.971Z,17.77
2018-06-03T21:43:45.892Z,16.17
2018-06-03T21:46:14.777Z,17.97
2018-06-03T21:48:43.687Z,17.43
2018-06-03T21:51:12.687Z,17.63
2018-06-03T21:53:41.627Z,16.80
2018-06-03T21:56:10.563Z,19.27
2018-06-03T21:58:39.491Z,17.03
2018-06-03T22:01:08.379Z,14.83
2018-06-03T22:03:37.292Z,16.80
2018-06-03T22:06:06.199Z,16.90
2018-06-03T22:08:35.104Z,17.53
2018-06-03T22:11:03.996Z,17.80
2018-06-03T22:13:32.906Z,16.33
2018-06-03T22:16:01.790Z,16.03
2018-06-03T22:18:30.719Z,18.27
2018-06-03T22:20:59.630Z,18.27
2018-06-03T22:23:28.541Z,17.93
2018-06-03T22:25:57.978Z,18.33
2018-06-03T22:28:26.843Z,17.47
2018-06-03T22:30:55.738Z,15.97
2018-06-03T22:33:24.639Z,16.40
2018-06-03T22:35:53.850Z,15.53
2018-06-03T22:38:22.757Z,17.63
2018-06-03T22:40:51.664Z,18.40
2018-06-03T22:43:20.570Z,19.23
2018-06-03T22:45:49.539Z,17.20
2018-06-03T22:48:18.455Z,16.70
2018-06-03T22:50:47.620Z,18.30
2018-06-03T22:53:16.526Z,15.53
2018-06-03T22:55:46.247Z,17.87
2018-06-03T22:58:15.383Z,15.17
2018-06-03T23:00:44.277Z,15.23
2018-06-03T23:03:15.477Z,16.80
2018-06-03T23:05:44.387Z,16.43
2018-06-03T23:08:13.290Z,16.57
2018-06-03T23:10:42.183Z,15.23
2018-06-03T23:13:11.078Z,16.80
2018-06-03T23:15:39.749Z,15.93
2018-06-03T23:18:08.531Z,16.13
2018-06-03T23:20:37.431Z,16.23
2018-06-03T23:23:06.334Z,17.53
2018-06-03T23:25:35.250Z,15.60
2018-06-03T23:28:04.162Z,16.70
2018-06-03T23:30:33.063Z,12.63
2018-06-03T23:33:01.951Z,14.23
2018-06-03T23:35:30.856Z,15.10
2018-06-03T23:37:59.759Z,16.90
2018-06-03T23:40:29.014Z,17.93
2018-06-03T23:42:57.963Z,16.67
2018-06-03T23:45:26.883Z,15.97
2018-06-03T23:47:55.826Z,17.67
2018-06-03T23:50:24.754Z,16.40
2018-06-03T23:52:53.670Z,15.20
2018-06-03T23:55:22.575Z,15.87
2018-06-03T23:57:51.472Z,14.93
